Time;durP1;ratioP1;P1;durP2;ratioP2;P2;SDS_P1;SDS_P2;PMS_P1;PMS_P2;Temp;Humidity;BMP_temperature;BMP_pressure;BME280_temperature;BME280_humidity;BME280_pressure;Samples;Min_cycle;Max_cycle;Signal;HPM_P1;HPM_P2
2022/01/30 00:02:02;;;;;;;8.15;1.10;;;27.00;99.90;;;;;;5052242;28;20428;-67
2022/01/30 00:04:30;;;;;;;5.85;0.90;;;27.20;99.90;;;;;;5052111;28;20025;-67
2022/01/30 00:07:00;;;;;;;9.00;1.23;;;27.30;99.90;;;;;;5051964;28;20032;-67
2022/01/30 00:09:27;;;;;;;5.65;0.90;;;27.50;99.90;;;;;;5051880;28;20032;-67
2022/01/30 00:11:58;;;;;;;7.20;0.80;;;27.80;99.90;;;;;;5053078;28;20610;-67
2022/01/30 00:14:28;;;;;;;4.15;1.02;;;27.90;99.90;;;;;;5051883;28;20092;-66
2022/01/30 00:17:01;;;;;;;14.65;1.38;;;27.80;99.90;;;;;;5051705;28;20021;-67
2022/01/30 00:19:36;;;;;;;7.13;1.15;;;27.80;99.90;;;;;;5053090;28;20017;-67
2022/01/30 00:27:18;;;;;;;9.32;1.83;;;28.10;99.90;;;;;;5052014;28;20049;-66
2022/01/30 00:29:46;;;;;;;8.77;1.23;;;27.90;99.90;;;;;;5053159;28;20021;-67
2022/01/30 00:32:13;;;;;;;11.00;1.48;;;27.90;99.90;;;;;;5052159;28;20108;-67
2022/01/30 00:34:40;;;;;;;9.50;1.73;;;27.90;99.90;;;;;;5052623;28;20025;-67
2022/01/30 00:37:08;;;;;;;7.32;1.30;;;27.70;99.90;;;;;;5052527;28;20051;-66
2022/01/30 00:39:35;;;;;;;11.32;1.48;;;27.60;99.90;;;;;;5053410;28;20096;-66
2022/01/30 00:42:02;;;;;;;11.50;1.75;;;27.70;99.90;;;;;;5051178;28;20036;-67
2022/01/30 00:44:30;;;;;;;7.30;1.45;;;28.00;99.90;;;;;;5052607;28;20056;-67
2022/01/30 00:46:58;;;;;;;12.15;1.52;;;28.10;99.90;;;;;;5050471;28;20031;-66
2022/01/30 00:49:26;;;;;;;9.40;1.55;;;28.00;99.90;;;;;;5053480;28;20126;-66
2022/01/30 00:51:53;;;;;;;5.75;1.52;;;27.70;99.90;;;;;;5052339;28;20027;-67
2022/01/30 00:54:21;;;;;;;8.05;1.48;;;28.10;99.90;;;;;;5051946;28;20028;-66
2022/01/30 00:56:48;;;;;;;10.88;1.20;;;28.10;99.90;;;;;;5051876;28;20043;-67
2022/01/30 00:59:15;;;;;;;7.93;1.48;;;28.20;99.90;;;;;;5052815;28;20021;-66
2022/01/30 01:01:42;;;;;;;8.60;1.35;;;28.10;99.90;;;;;;5051984;28;20025;-67
2022/01/30 01:04:10;;;;;;;7.57;0.88;;;28.20;99.90;;;;;;5051312;28;20539;-67
2022/01/30 01:06:38;;;;;;;11.73;1.40;;;27.90;99.90;;;;;;5051855;28;20478;-66
2022/01/30 01:09:06;;;;;;;10.60;1.75;;;27.50;99.90;;;;;;5051622;28;20056;-66
2022/01/30 01:24:56;;;;;;;7.53;1.38;;;27.50;99.90;;;;;;5052653;28;20492;-66
2022/01/30 01:27:23;;;;;;;6.65;0.90;;;27.40;99.90;;;;;;5051729;28;20490;-67
2022/01/30 01:29:50;;;;;;;7.53;1.40;;;27.40;99.90;;;;;;5041142;28;20071;-67
2022/01/30 01:32:17;;;;;;;6.65;0.90;;;27.40;99.90;;;;;;5047878;28;20020;-67
2022/01/30 01:34:45;;;;;;;10.45;1.33;;;27.40;99.90;;;;;;5055378;28;20024;-66
2022/01/30 01:37:12;;;;;;;8.25;1.25;;;27.60;99.90;;;;;;5054468;28;20021;-67
2022/01/30 01:39:39;;;;;;;8.38;1.40;;;27.70;99.90;;;;;;5053388;28;20033;-66
2022/01/30 01:42:10;;;;;;;5.15;1.10;;;28.00;99.90;;;;;;5053568;28;20009;-66
2022/01/30 01:44:45;;;;;;;10.73;1.30;;;27.40;99.90;;;;;;5053973;28;20033;-67
2022/01/30 01:47:14;;;;;;;10.10;2.03;;;27.30;99.90;;;;;;5055368;28;20029;-67
2022/01/30 01:49:42;;;;;;;7.75;1.35;;;27.00;99.90;;;;;;5056371;28;20019;-66
2022/01/30 01:52:21;;;;;;;10.20;1.55;;;26.90;99.90;;;;;;5055509;28;20036;-66
2022/01/30 01:54:54;;;;;;;12.70;1.55;;;27.10;99.90;;;;;;5056269;28;20482;-66
2022/01/30 01:57:23;;;;;;;5.93;1.20;;;27.80;99.90;;;;;;5054504;28;20532;-67
2022/01/30 01:59:51;;;;;;;6.85;1.10;;;28.10;99.90;;;;;;5055151;28;20035;-67
2022/01/30 02:02:19;;;;;;;6.80;0.82;;;28.30;99.90;;;;;;5055383;28;20021;-67
2022/01/30 02:04:47;;;;;;;5.25;0.95;;;28.60;99.90;;;;;;5054826;28;20036;-67
2022/01/30 02:09:42;;;;;;;13.18;1.73;;;28.50;99.90;;;;;;5055621;28;20104;-67
2022/01/30 02:12:26;;;;;;;9.18;1.42;;;28.60;99.90;;;;;;5054824;28;20049;-67
2022/01/30 02:15:07;;;;;;;5.55;1.38;;;28.60;99.90;;;;;;5055748;28;20056;-67
2022/01/30 02:25:57;;;;;;;7.50;1.40;;;28.60;99.90;;;;;;5055134;28;20048;-67
2022/01/30 02:28:27;;;;;;;7.80;1.33;;;28.50;99.90;;;;;;5054049;28;20049;-67
2022/01/30 02:31:27;;;;;;;9.50;0.85;;;28.40;99.90;;;;;;5054023;28;20366;-67
2022/01/30 02:33:47;;;;;;;6.67;1.40;;;28.70;99.90;;;;;;5051007;28;20498;-67
2022/01/30 02:36:15;;;;;;;6.60;1.35;;;28.90;99.90;;;;;;5054280;28;20082;-67
2022/01/30 02:38:42;;;;;;;6.68;1.17;;;29.00;99.90;;;;;;5055264;28;20029;-67
2022/01/30 02:41:09;;;;;;;9.57;0.95;;;29.00;99.90;;;;;;5054806;28;20032;-67
2022/01/30 02:43:47;;;;;;;13.25;1.10;;;28.40;99.90;;;;;;5053311;28;20111;-67
2022/01/30 02:46:27;;;;;;;9.60;1.45;;;28.30;99.90;;;;;;5054833;28;20029;-67
2022/01/30 02:48:58;;;;;;;10.60;1.50;;;28.30;99.90;;;;;;5054831;28;20108;-67
2022/01/30 02:51:34;;;;;;;9.20;1.00;;;28.20;99.90;;;;;;5053250;28;20083;-67
2022/01/30 02:54:05;;;;;;;10.73;1.23;;;28.40;99.90;;;;;;5054815;28;20017;-67
2022/01/30 02:56:34;;;;;;;7.80;0.82;;;28.40;99.90;;;;;;5053870;28;20159;-67
2022/01/30 02:59:02;;;;;;;7.10;1.00;;;28.10;99.90;;;;;;5051464;28;20055;-67
2022/01/30 03:01:29;;;;;;;9.25;1.27;;;28.20;99.90;;;;;;5054269;28;20036;-67
2022/01/30 03:03:56;;;;;;;6.03;1.23;;;28.30;99.90;;;;;;5054382;28;20043;-66
2022/01/30 03:06:24;;;;;;;5.07;0.95;;;28.30;99.90;;;;;;5054441;28;20033;-67
2022/01/30 03:08:51;;;;;;;6.50;1.15;;;28.60;99.90;;;;;;5069723;28;20017;-67
2022/01/30 03:11:19;;;;;;;9.60;1.48;;;28.80;99.90;;;;;;5053785;28;20017;-67
2022/01/30 03:13:46;;;;;;;13.35;1.98;;;28.70;99.90;;;;;;5053463;28;20035;-67
2022/01/30 03:16:14;;;;;;;8.35;1.10;;;28.70;99.90;;;;;;5053873;28;20112;-66
2022/01/30 03:18:43;;;;;;;7.30;1.38;;;28.10;99.90;;;;;;5053181;28;20080;-67
2022/01/30 03:21:10;;;;;;;8.52;1.15;;;27.90;99.90;;;;;;5054030;28;20427;-67
2022/01/30 03:23:38;;;;;;;7.80;1.30;;;28.10;99.90;;;;;;5053582;28;20386;-67
2022/01/30 03:26:07;;;;;;;8.00;1.65;;;28.10;99.90;;;;;;5053511;28;20460;-67
2022/01/30 03:28:34;;;;;;;7.95;1.25;;;28.10;99.90;;;;;;5053020;28;20647;-66
2022/01/30 03:31:06;;;;;;;7.90;1.17;;;28.00;99.90;;;;;;5040127;28;20021;-67
2022/01/30 03:33:34;;;;;;;13.48;1.70;;;27.50;99.90;;;;;;5051776;28;20037;-67
2022/01/30 03:36:01;;;;;;;7.80;1.40;;;27.60;99.90;;;;;;5054071;28;20028;-67
2022/01/30 03:38:29;;;;;;;10.55;1.25;;;27.60;99.90;;;;;;5052477;28;20041;-67
2022/01/30 03:40:56;;;;;;;5.20;0.82;;;27.70;99.90;;;;;;5052903;28;20029;-66
2022/01/30 03:43:24;;;;;;;9.48;1.27;;;27.80;99.90;;;;;;5052066;28;20112;-67
2022/01/30 03:45:52;;;;;;;9.80;1.60;;;27.80;99.90;;;;;;5051006;28;20028;-67
2022/01/30 03:48:19;;;;;;;9.23;1.70;;;27.50;99.90;;;;;;5053241;28;20506;-66
2022/01/30 03:50:46;;;;;;;8.73;1.52;;;27.60;99.90;;;;;;5053929;28;20133;-67
2022/01/30 03:53:14;;;;;;;7.85;1.40;;;27.90;99.90;;;;;;5051690;28;20044;-67
2022/01/30 03:55:41;;;;;;;9.15;1.08;;;27.70;99.90;;;;;;5053500;28;20025;-67
2022/01/30 03:58:08;;;;;;;8.90;1.40;;;27.30;99.90;;;;;;5053027;28;20412;-67
2022/01/30 04:00:35;;;;;;;10.57;1.83;;;27.30;99.90;;;;;;5053087;28;20053;-67
2022/01/30 04:03:03;;;;;;;9.43;1.13;;;27.50;99.90;;;;;;5052812;28;20108;-67
2022/01/30 04:05:30;;;;;;;8.65;2.13;;;27.50;99.90;;;;;;5052523;28;20516;-67
2022/01/30 04:08:02;;;;;;;6.70;0.90;;;27.40;99.90;;;;;;5052520;28;20405;-67
2022/01/30 04:10:31;;;;;;;9.90;1.27;;;27.40;99.90;;;;;;5051788;28;20627;-67
2022/01/30 04:12:59;;;;;;;11.32;1.48;;;27.30;99.90;;;;;;5050795;28;20032;-67
2022/01/30 04:15:27;;;;;;;10.68;1.17;;;27.40;99.90;;;;;;5053210;28;20105;-67
2022/01/30 04:17:54;;;;;;;17.05;2.20;;;27.40;99.90;;;;;;5052888;28;20029;-66
2022/01/30 04:20:22;;;;;;;11.05;1.75;;;27.20;99.90;;;;;;5053229;28;20440;-66
2022/01/30 04:22:49;;;;;;;10.70;1.52;;;27.00;99.90;;;;;;5051895;28;20087;-66
2022/01/30 04:25:16;;;;;;;8.32;1.92;;;27.10;99.90;;;;;;5052098;28;20033;-67
2022/01/30 04:27:44;;;;;;;10.70;1.73;;;27.10;99.90;;;;;;5052115;28;20045;-66
2022/01/30 04:30:12;;;;;;;9.02;1.67;;;27.00;99.90;;;;;;5052803;28;20025;-67
2022/01/30 04:32:42;;;;;;;13.73;1.77;;;26.90;99.90;;;;;;5052306;28;20029;-67
2022/01/30 04:35:21;;;;;;;10.07;1.50;;;27.00;99.90;;;;;;5053182;28;20116;-67
2022/01/30 04:40:43;;;;;;;10.88;2.00;;;26.90;99.90;;;;;;5051599;28;20444;-67
2022/01/30 04:56:59;;;;;;;10.45;2.25;;;27.20;99.90;;;;;;5036103;28;20037;-67
2022/01/30 05:02:08;;;;;;;10.25;2.13;;;27.20;99.90;;;;;;5050858;28;20029;-67
2022/01/30 05:05:06;;;;;;;11.77;1.75;;;27.30;99.90;;;;;;5051295;28;20028;-67
2022/01/30 05:07:36;;;;;;;10.38;1.67;;;27.20;99.90;;;;;;5047049;28;20029;-67
2022/01/30 05:10:04;;;;;;;10.32;1.98;;;27.10;99.90;;;;;;5051397;28;20025;-67
2022/01/30 05:12:41;;;;;;;6.22;1.05;;;27.30;99.90;;;;;;5050863;28;20048;-67
2022/01/30 05:15:09;;;;;;;8.10;1.30;;;27.40;99.90;;;;;;5052380;28;20032;-67
2022/01/30 05:17:36;;;;;;;7.82;1.42;;;27.40;99.90;;;;;;5048845;28;20131;-67
2022/01/30 05:20:04;;;;;;;7.80;1.02;;;27.20;99.90;;;;;;5032262;28;20026;-67
2022/01/30 05:22:32;;;;;;;8.50;1.17;;;27.00;99.90;;;;;;5040729;28;20032;-67
2022/01/30 05:24:59;;;;;;;7.25;0.95;;;26.90;99.90;;;;;;5052723;28;20037;-67
2022/01/30 05:27:27;;;;;;;8.15;0.80;;;27.00;99.90;;;;;;5051417;28;20124;-67
2022/01/30 05:29:55;;;;;;;11.30;1.55;;;26.90;99.90;;;;;;5051017;28;20038;-67
2022/01/30 05:32:22;;;;;;;5.03;1.10;;;26.80;99.90;;;;;;5050962;28;20397;-66
2022/01/30 05:34:54;;;;;;;8.60;1.23;;;26.90;99.90;;;;;;5051279;28;20037;-66
2022/01/30 05:37:22;;;;;;;7.90;1.20;;;26.90;99.90;;;;;;5051252;28;20469;-66
2022/01/30 05:39:49;;;;;;;10.32;1.10;;;27.10;99.90;;;;;;5051607;28;20029;-66
2022/01/30 05:42:19;;;;;;;12.93;1.58;;;27.20;99.90;;;;;;5050984;28;20104;-66
2022/01/30 05:47:23;;;;;;;7.55;1.23;;;26.80;99.90;;;;;;5051798;28;20485;-66
2022/01/30 05:49:50;;;;;;;9.48;2.22;;;26.90;99.90;;;;;;5052622;28;20017;-66
2022/01/30 05:52:18;;;;;;;10.10;1.38;;;27.00;99.90;;;;;;5051644;28;20389;-66
2022/01/30 05:54:45;;;;;;;9.20;1.63;;;27.10;99.90;;;;;;5051380;28;20024;-66
2022/01/30 05:57:12;;;;;;;10.93;1.50;;;27.10;99.90;;;;;;5051357;28;20107;-66
2022/01/30 05:59:40;;;;;;;7.47;0.93;;;26.80;99.90;;;;;;5051544;28;20040;-66
2022/01/30 06:02:07;;;;;;;7.00;1.27;;;27.00;99.90;;;;;;5050852;28;20025;-66
2022/01/30 06:04:34;;;;;;;8.07;1.63;;;26.80;99.90;;;;;;5050809;28;20100;-66
2022/01/30 06:07:02;;;;;;;6.50;1.38;;;26.80;99.90;;;;;;5051409;28;20060;-66
2022/01/30 06:09:29;;;;;;;8.05;1.27;;;26.60;99.90;;;;;;5052080;28;20036;-66
2022/01/30 06:11:56;;;;;;;7.32;1.13;;;26.70;99.90;;;;;;5048674;28;20017;-66
2022/01/30 06:14:24;;;;;;;7.55;1.50;;;26.80;99.90;;;;;;5052005;28;20075;-66
2022/01/30 06:16:53;;;;;;;10.05;1.30;;;26.70;99.90;;;;;;5051851;28;20025;-66
2022/01/30 06:19:22;;;;;;;9.70;1.40;;;26.90;99.90;;;;;;5055353;28;20074;-66
2022/01/30 06:21:50;;;;;;;7.93;1.75;;;26.80;99.90;;;;;;5054996;28;20112;-66
2022/01/30 06:24:17;;;;;;;10.68;1.92;;;26.60;99.90;;;;;;5054112;28;20024;-66
2022/01/30 06:26:45;;;;;;;11.90;1.50;;;26.80;99.90;;;;;;5053745;28;20045;-66
2022/01/30 06:29:15;;;;;;;10.23;1.20;;;26.80;99.90;;;;;;5047690;28;20032;-66
2022/01/30 06:31:42;;;;;;;14.40;1.77;;;26.90;99.90;;;;;;5053376;28;20021;-66
2022/01/30 06:34:09;;;;;;;10.50;1.48;;;26.80;99.90;;;;;;5054318;28;20036;-66
2022/01/30 06:36:37;;;;;;;5.80;0.85;;;26.60;99.90;;;;;;5053263;28;20064;-66
2022/01/30 06:39:04;;;;;;;7.60;1.48;;;26.70;99.90;;;;;;5054395;28;20025;-66
2022/01/30 06:41:31;;;;;;;7.05;1.05;;;27.00;99.90;;;;;;5052080;28;20409;-66
2022/01/30 06:43:59;;;;;;;7.10;1.13;;;27.00;99.90;;;;;;5055004;28;20032;-66
2022/01/30 06:46:26;;;;;;;13.82;2.20;;;26.70;99.90;;;;;;5054203;28;20025;-66
2022/01/30 06:48:54;;;;;;;5.47;0.98;;;26.80;99.90;;;;;;5054672;28;20043;-66
2022/01/30 06:51:21;;;;;;;9.32;1.23;;;26.70;99.90;;;;;;5054743;28;20031;-66
2022/01/30 06:53:48;;;;;;;8.05;1.00;;;26.60;99.90;;;;;;5053729;28;20393;-66
2022/01/30 06:56:16;;;;;;;8.30;1.40;;;26.40;99.90;;;;;;5053679;28;20028;-66
2022/01/30 06:58:43;;;;;;;7.15;1.33;;;26.10;99.90;;;;;;5052369;28;20485;-66
2022/01/30 07:01:11;;;;;;;7.97;1.63;;;26.10;99.90;;;;;;5054905;28;20094;-66
2022/01/30 07:03:38;;;;;;;6.30;1.27;;;25.90;99.90;;;;;;5052643;28;20052;-66
2022/01/30 07:06:05;;;;;;;4.38;0.90;;;25.80;99.90;;;;;;5053036;28;20063;-66
2022/01/30 07:08:33;;;;;;;6.93;1.63;;;25.90;99.90;;;;;;5055202;28;20032;-66
2022/01/30 07:11:00;;;;;;;6.20;0.95;;;26.20;99.90;;;;;;5054564;28;20036;-66
2022/01/30 07:13:27;;;;;;;8.52;1.10;;;26.30;99.90;;;;;;5046133;28;20167;-66
2022/01/30 07:15:54;;;;;;;7.38;0.95;;;26.10;99.90;;;;;;5051752;28;20021;-66
2022/01/30 07:18:22;;;;;;;8.50;1.67;;;26.10;99.90;;;;;;5053199;28;20033;-66
2022/01/30 07:20:49;;;;;;;6.10;0.90;;;26.20;99.90;;;;;;5053151;28;20393;-66
2022/01/30 07:23:16;;;;;;;8.90;1.08;;;26.10;99.90;;;;;;5051767;28;20025;-66
2022/01/30 07:25:44;;;;;;;9.02;1.63;;;26.40;99.90;;;;;;5053634;28;20059;-66
2022/01/30 07:28:11;;;;;;;12.15;1.73;;;26.70;99.90;;;;;;5040177;28;20054;-66
2022/01/30 07:30:39;;;;;;;5.60;1.05;;;26.60;99.90;;;;;;5033868;28;20029;-66
2022/01/30 07:33:06;;;;;;;11.23;1.88;;;27.00;99.90;;;;;;5053850;28;20036;-66
2022/01/30 07:35:36;;;;;;;6.07;0.95;;;27.00;99.90;;;;;;5054491;28;20842;-66
2022/01/30 07:38:05;;;;;;;7.50;0.82;;;26.70;99.90;;;;;;5053952;28;20029;-66
2022/01/30 07:40:33;;;;;;;7.40;1.35;;;26.50;99.90;;;;;;5053731;28;20524;-66
2022/01/30 07:43:01;;;;;;;8.00;1.20;;;26.80;99.90;;;;;;5053279;28;20422;-66
2022/01/30 07:45:28;;;;;;;9.40;2.10;;;26.90;99.90;;;;;;5054106;28;20025;-66
2022/01/30 07:47:55;;;;;;;7.28;1.70;;;26.50;99.90;;;;;;5051507;28;20029;-66
2022/01/30 07:50:23;;;;;;;8.63;1.50;;;26.00;99.90;;;;;;5053015;28;20366;-66
2022/01/30 07:52:50;;;;;;;9.20;1.33;;;25.90;99.90;;;;;;5053215;28;20031;-66
2022/01/30 07:55:19;;;;;;;6.30;1.17;;;25.80;99.90;;;;;;5053454;28;20024;-66
2022/01/30 07:57:47;;;;;;;10.05;1.23;;;25.60;99.90;;;;;;5053064;28;20430;-66
2022/01/30 08:00:15;;;;;;;9.40;2.22;;;25.60;99.90;;;;;;5051901;28;20028;-66
2022/01/30 08:02:42;;;;;;;5.55;1.15;;;25.50;99.90;;;;;;5045727;28;20412;-66
2022/01/30 08:05:10;;;;;;;9.60;1.20;;;25.40;99.90;;;;;;5052661;28;20037;-66
2022/01/30 08:07:39;;;;;;;7.63;0.70;;;25.40;99.90;;;;;;5053480;28;20063;-66
2022/01/30 08:10:06;;;;;;;7.18;1.48;;;25.30;99.90;;;;;;5053919;28;20017;-66
2022/01/30 08:12:34;;;;;;;6.63;1.55;;;25.30;99.90;;;;;;5052921;28;20040;-66
2022/01/30 08:15:02;;;;;;;8.60;1.42;;;25.30;99.90;;;;;;5052199;28;20025;-66
2022/01/30 08:17:32;;;;;;;11.77;2.08;;;25.30;99.90;;;;;;5050886;28;20059;-66
2022/01/30 08:19:59;;;;;;;8.80;1.25;;;25.10;99.90;;;;;;5053382;28;20017;-66
2022/01/30 08:22:29;;;;;;;13.15;2.05;;;25.00;99.90;;;;;;5052412;28;20065;-66
2022/01/30 08:24:57;;;;;;;6.38;1.15;;;25.00;99.90;;;;;;5052384;28;20025;-66
2022/01/30 08:27:24;;;;;;;6.93;0.93;;;25.00;99.90;;;;;;5051464;28;20049;-66
2022/01/30 08:29:51;;;;;;;6.72;1.40;;;25.00;99.90;;;;;;5053637;28;20497;-66
2022/01/30 08:32:19;;;;;;;12.90;1.98;;;25.00;99.90;;;;;;5052408;28;20501;-66
2022/01/30 08:34:46;;;;;;;9.88;1.10;;;24.90;99.90;;;;;;5052743;28;20032;-65
2022/01/30 08:37:13;;;;;;;9.48;1.67;;;24.80;99.90;;;;;;5047663;28;20025;-65
2022/01/30 08:39:40;;;;;;;9.63;1.13;;;24.80;99.90;;;;;;5033718;28;20032;-65
2022/01/30 08:42:08;;;;;;;10.93;1.92;;;24.80;99.90;;;;;;5042220;28;20032;-66
2022/01/30 08:44:35;;;;;;;11.55;1.92;;;24.70;99.90;;;;;;5052753;28;20118;-66
2022/01/30 08:47:03;;;;;;;8.45;1.20;;;24.70;99.90;;;;;;5051328;28;20036;-66
2022/01/30 08:49:33;;;;;;;11.57;1.63;;;24.60;99.90;;;;;;5052833;28;20021;-66
2022/01/30 08:52:01;;;;;;;9.45;1.23;;;24.70;99.90;;;;;;5048577;28;20025;-66
2022/01/30 08:54:28;;;;;;;8.80;1.75;;;24.70;99.90;;;;;;5037819;28;20059;-66
2022/01/30 08:56:55;;;;;;;9.85;1.50;;;24.60;99.90;;;;;;5049752;28;20025;-66
2022/01/30 08:59:23;;;;;;;9.65;1.52;;;24.70;99.90;;;;;;5040325;28;20454;-66
2022/01/30 09:01:50;;;;;;;5.53;1.10;;;24.60;99.90;;;;;;5050153;28;20029;-66
2022/01/30 09:04:20;;;;;;;12.10;1.65;;;24.50;99.90;;;;;;5033184;28;20018;-66
2022/01/30 09:06:47;;;;;;;9.10;2.13;;;24.60;99.90;;;;;;5033955;28;20464;-66
2022/01/30 09:09:14;;;;;;;7.93;1.13;;;24.60;99.90;;;;;;5031722;28;20025;-66
2022/01/30 09:11:42;;;;;;;6.68;1.25;;;24.50;99.90;;;;;;5046258;28;20033;-65
2022/01/30 09:14:09;;;;;;;9.63;1.35;;;24.50;99.90;;;;;;5051677;28;20485;-66
2022/01/30 09:16:36;;;;;;;8.35;1.55;;;24.50;99.90;;;;;;5052344;28;20429;-66
2022/01/30 09:19:03;;;;;;;6.90;1.58;;;24.50;99.90;;;;;;5053196;28;20025;-66
2022/01/30 09:21:31;;;;;;;12.73;1.90;;;24.50;99.90;;;;;;5052087;28;20108;-66
2022/01/30 09:23:58;;;;;;;8.82;2.05;;;24.50;99.90;;;;;;5053140;28;20060;-66
2022/01/30 09:26:25;;;;;;;9.32;1.85;;;24.50;99.90;;;;;;5052398;28;20481;-66
2022/01/30 09:28:52;;;;;;;8.27;1.48;;;24.40;99.90;;;;;;5052661;28;20025;-66
2022/01/30 09:31:20;;;;;;;11.02;1.65;;;24.40;99.90;;;;;;5052876;28;20036;-66
2022/01/30 09:33:47;;;;;;;8.65;1.35;;;24.40;99.90;;;;;;5050759;28;20040;-66
2022/01/30 09:36:15;;;;;;;10.63;2.05;;;24.50;99.90;;;;;;5048174;28;20025;-66
2022/01/30 09:38:42;;;;;;;12.70;1.55;;;24.40;99.90;;;;;;5049803;28;20473;-66
2022/01/30 09:41:10;;;;;;;12.90;2.47;;;24.40;99.90;;;;;;5051007;28;20154;-66
2022/01/30 09:43:38;;;;;;;8.60;1.75;;;24.40;99.90;;;;;;5051473;28;20032;-66
2022/01/30 09:46:06;;;;;;;10.02;1.30;;;24.40;99.90;;;;;;5052331;28;20030;-66
2022/01/30 09:48:37;;;;;;;7.05;1.65;;;24.40;99.90;;;;;;5039438;28;20029;-66
2022/01/30 09:51:09;;;;;;;10.73;1.65;;;24.40;99.90;;;;;;5052682;28;20029;-66
2022/01/30 09:53:38;;;;;;;8.35;1.38;;;24.40;99.90;;;;;;5054806;28;20021;-66
2022/01/30 09:56:06;;;;;;;9.45;1.20;;;24.40;99.90;;;;;;5056831;28;20025;-66
2022/01/30 09:58:33;;;;;;;11.63;1.95;;;24.40;99.90;;;;;;5055497;28;20045;-66
2022/01/30 10:01:05;;;;;;;8.45;1.48;;;24.40;99.90;;;;;;5056635;28;20477;-66
2022/01/30 10:03:33;;;;;;;7.97;1.73;;;24.30;99.90;;;;;;5055796;28;20028;-66
2022/01/30 10:06:08;;;;;;;9.40;1.80;;;24.30;99.90;;;;;;5053855;28;20069;-66
2022/01/30 10:08:44;;;;;;;7.78;1.30;;;24.30;99.90;;;;;;5038838;28;20060;-66
2022/01/30 10:14:14;;;;;;;7.53;1.35;;;24.20;99.90;;;;;;5055840;28;20056;-66
2022/01/30 10:16:49;;;;;;;15.98;2.35;;;24.20;99.90;;;;;;5055272;28;20104;-66
2022/01/30 10:19:21;;;;;;;9.15;1.73;;;24.20;99.90;;;;;;5056413;28;20528;-66
2022/01/30 10:22:06;;;;;;;7.43;1.15;;;24.20;99.90;;;;;;5055650;28;20118;-66
2022/01/30 10:24:38;;;;;;;10.70;1.33;;;24.20;99.90;;;;;;5056708;28;20424;-66
2022/01/30 10:27:24;;;;;;;7.28;1.35;;;24.10;99.90;;;;;;5055351;28;20056;-66
2022/01/30 10:30:06;;;;;;;10.43;1.77;;;24.20;99.90;;;;;;5055466;28;20029;-66
2022/01/30 10:32:34;;;;;;;11.00;1.02;;;24.20;99.90;;;;;;5056090;28;20056;-65
2022/01/30 10:35:10;;;;;;;13.52;1.52;;;24.20;99.90;;;;;;5056237;28;20052;-66
2022/01/30 10:37:39;;;;;;;11.23;1.63;;;24.10;99.90;;;;;;5046107;28;20033;-66
2022/01/30 10:40:15;;;;;;;7.95;1.20;;;24.10;99.90;;;;;;5036648;28;20018;-66
2022/01/30 10:42:52;;;;;;;9.90;2.10;;;24.10;99.90;;;;;;5048710;28;20385;-65
2022/01/30 10:45:23;;;;;;;12.73;1.08;;;24.10;99.90;;;;;;5036581;28;20055;-66
2022/01/30 10:47:50;;;;;;;7.63;1.75;;;24.10;99.90;;;;;;5038074;28;20033;-66
2022/01/30 10:50:22;;;;;;;7.57;1.05;;;24.10;99.90;;;;;;5036622;28;20018;-65
2022/01/30 10:52:50;;;;;;;13.45;1.30;;;24.10;99.90;;;;;;5049698;28;20604;-66
2022/01/30 10:55:17;;;;;;;12.38;1.20;;;24.10;99.90;;;;;;5054173;28;20079;-66
2022/01/30 10:57:46;;;;;;;13.25;1.70;;;24.10;99.90;;;;;;5055468;28;20028;-65
2022/01/30 11:00:14;;;;;;;4.53;1.48;;;24.10;99.90;;;;;;5054695;28;20031;-65
2022/01/30 11:02:41;;;;;;;6.82;1.00;;;24.10;99.90;;;;;;5054657;28;20040;-66
2022/01/30 11:05:13;;;;;;;10.63;0.93;;;24.10;99.90;;;;;;5035923;28;20029;-66
2022/01/30 11:07:40;;;;;;;5.57;1.23;;;24.00;99.90;;;;;;5044236;28;20429;-66
2022/01/30 11:10:19;;;;;;;9.02;1.23;;;24.00;99.90;;;;;;5055329;28;20025;-66
2022/01/30 11:12:56;;;;;;;4.95;1.02;;;24.00;99.90;;;;;;5055343;28;20021;-66
2022/01/30 11:18:04;;;;;;;11.38;1.38;;;24.00;99.90;;;;;;5055073;28;20107;-66
2022/01/30 11:20:34;;;;;;;8.70;1.02;;;24.00;99.90;;;;;;5055512;28;20025;-65
2022/01/30 11:23:05;;;;;;;9.43;1.77;;;23.90;99.90;;;;;;5044536;28;20037;-66
2022/01/30 11:25:36;;;;;;;9.27;1.42;;;24.00;99.90;;;;;;5052082;28;20025;-66
2022/01/30 11:28:05;;;;;;;7.65;1.08;;;23.90;99.90;;;;;;5054146;28;20409;-66
2022/01/30 11:30:34;;;;;;;10.73;1.40;;;23.90;99.90;;;;;;5054407;28;20056;-66
2022/01/30 11:33:01;;;;;;;11.30;1.02;;;23.90;99.90;;;;;;5042545;28;20421;-66
2022/01/30 11:35:30;;;;;;;11.07;1.73;;;23.90;99.90;;;;;;5035658;28;20541;-66
2022/01/30 11:37:57;;;;;;;7.97;1.23;;;23.90;99.90;;;;;;5047739;28;20425;-65
2022/01/30 11:40:25;;;;;;;10.82;1.92;;;23.90;99.90;;;;;;5055338;28;20028;-66
2022/01/30 11:42:53;;;;;;;10.75;1.60;;;23.80;99.90;;;;;;5041805;28;20025;-65
2022/01/30 11:45:28;;;;;;;9.07;1.15;;;23.80;99.90;;;;;;5035055;28;20029;-65
2022/01/30 11:48:00;;;;;;;9.65;1.40;;;23.70;99.90;;;;;;5047606;28;20063;-66
2022/01/30 11:50:30;;;;;;;11.80;1.63;;;23.80;99.90;;;;;;5054701;28;20021;-66
2022/01/30 11:53:03;;;;;;;13.95;1.63;;;23.80;99.90;;;;;;5046244;28;20029;-66
2022/01/30 11:55:55;;;;;;;8.80;1.95;;;23.80;99.90;;;;;;5049612;28;20029;-66
2022/01/30 11:58:31;;;;;;;8.02;1.50;;;23.80;99.90;;;;;;5049638;28;20033;-66
2022/01/30 12:01:04;;;;;;;8.60;1.65;;;23.80;99.90;;;;;;5055666;28;20052;-65
2022/01/30 12:03:37;;;;;;;13.07;1.75;;;23.70;99.90;;;;;;5054057;28;20110;-66
2022/01/30 12:06:22;;;;;;;11.80;2.10;;;23.80;99.90;;;;;;5053535;28;20068;-66
2022/01/30 12:08:56;;;;;;;9.02;1.52;;;23.80;99.90;;;;;;5054782;28;20029;-66
2022/01/30 12:14:29;;;;;;;10.05;1.30;;;23.70;99.90;;;;;;5052600;28;20029;-65
2022/01/30 12:17:00;;;;;;;7.85;1.10;;;23.70;99.90;;;;;;5054008;28;20405;-64
2022/01/30 12:19:40;;;;;;;8.70;1.20;;;23.70;99.90;;;;;;5053050;28;20017;-65
2022/01/30 12:22:16;;;;;;;11.27;1.95;;;23.70;99.90;;;;;;5053724;28;20054;-65
2022/01/30 12:24:49;;;;;;;7.85;1.45;;;23.70;99.90;;;;;;5054168;28;20032;-65
2022/01/30 12:27:17;;;;;;;8.18;1.52;;;23.60;99.90;;;;;;5053637;28;20141;-65
2022/01/30 12:29:52;;;;;;;11.20;1.52;;;23.70;99.90;;;;;;5053906;28;20021;-65
2022/01/30 12:32:28;;;;;;;7.60;1.65;;;23.60;99.90;;;;;;5045626;28;20029;-64
2022/01/30 12:34:55;;;;;;;9.85;1.85;;;23.60;99.90;;;;;;5049807;28;20071;-65
2022/01/30 12:37:37;;;;;;;14.77;1.77;;;23.60;99.90;;;;;;5048075;28;20527;-66
2022/01/30 12:40:20;;;;;;;8.75;1.67;;;23.60;99.90;;;;;;5054501;28;20028;-66
2022/01/30 12:42:48;;;;;;;12.85;2.30;;;23.60;99.90;;;;;;5051864;28;20029;-66
2022/01/30 12:45:16;;;;;;;12.23;1.73;;;23.60;99.90;;;;;;5054609;28;20071;-66
2022/01/30 12:47:59;;;;;;;8.60;1.17;;;23.60;99.90;;;;;;5052607;28;20477;-65
2022/01/30 12:50:32;;;;;;;7.03;1.20;;;23.60;99.90;;;;;;5050700;28;20424;-65
2022/01/30 12:53:01;;;;;;;10.18;2.08;;;23.60;99.90;;;;;;5053211;28;20382;-66
2022/01/30 12:55:29;;;;;;;10.60;1.20;;;23.50;99.90;;;;;;5052343;28;20041;-65
2022/01/30 12:57:59;;;;;;;12.05;1.75;;;23.50;99.90;;;;;;5051872;28;20037;-65
2022/01/30 13:00:26;;;;;;;9.82;2.00;;;23.50;99.90;;;;;;5053461;28;20055;-66
2022/01/30 13:02:59;;;;;;;7.78;1.80;;;23.50;99.90;;;;;;5051918;28;20075;-66
2022/01/30 13:05:28;;;;;;;9.70;1.73;;;23.40;99.90;;;;;;5054510;28;20060;-66
2022/01/30 13:07:57;;;;;;;8.88;1.85;;;23.40;99.90;;;;;;5053411;28;20029;-66
2022/01/30 13:10:26;;;;;;;10.07;1.70;;;23.40;99.90;;;;;;5053813;28;20048;-66
2022/01/30 13:12:58;;;;;;;13.02;2.03;;;23.40;99.90;;;;;;5051657;28;20032;-66
2022/01/30 13:15:27;;;;;;;9.68;1.52;;;23.40;99.90;;;;;;5054206;28;20078;-66
2022/01/30 13:17:56;;;;;;;12.40;1.42;;;23.30;99.90;;;;;;5051163;28;20382;-65
2022/01/30 13:20:27;;;;;;;9.90;1.85;;;23.30;99.90;;;;;;5052544;28;20025;-66
2022/01/30 13:22:56;;;;;;;12.32;2.08;;;23.30;99.90;;;;;;5053049;28;20114;-65
2022/01/30 13:25:24;;;;;;;9.73;1.45;;;23.30;99.90;;;;;;5051356;28;20025;-65
2022/01/30 13:27:53;;;;;;;10.43;1.60;;;23.30;99.90;;;;;;5053615;28;20104;-66
2022/01/30 13:30:22;;;;;;;6.72;1.42;;;23.30;99.90;;;;;;5057006;28;20114;-65
2022/01/30 13:32:50;;;;;;;10.52;1.20;;;23.30;99.90;;;;;;5055176;28;20063;-66
2022/01/30 13:35:19;;;;;;;7.80;1.45;;;23.30;99.90;;;;;;5057019;28;20029;-66
2022/01/30 13:37:48;;;;;;;9.75;2.30;;;23.20;99.90;;;;;;5046858;28;20367;-66
2022/01/30 13:40:26;;;;;;;10.20;1.67;;;23.20;99.90;;;;;;5037782;28;20025;-66
2022/01/30 13:42:57;;;;;;;12.30;2.15;;;23.20;99.90;;;;;;5054453;28;20112;-65
2022/01/30 13:48:17;;;;;;;14.38;1.83;;;23.20;99.90;;;;;;5056970;28;20025;-66
2022/01/30 13:51:06;;;;;;;8.20;1.92;;;23.10;99.90;;;;;;5056074;28;20409;-66
2022/01/30 13:53:40;;;;;;;15.82;2.17;;;23.10;99.90;;;;;;5056416;28;20028;-66
2022/01/30 13:56:17;;;;;;;8.75;1.77;;;23.10;99.90;;;;;;5055345;28;20060;-66
2022/01/30 13:58:51;;;;;;;8.32;1.17;;;23.00;99.90;;;;;;5055419;28;20477;-65